Hardesty, Oklahoma
Current Conditions -  °F | °C
As of 2:53 PM on Friday 19 Dec 2014 (Local Time) from KGUY Reporting Station
Few Clouds Few Clouds  
Wind Chill: 39°   Ceiling: Unl
Heat Index: 44°   Visibility: 10mi
Dew Point: 34°   Wind: 9mph
Humidity: 68%   Direction: 190°S
Pressure: 30.09"   Gusts: NA
Location:  36.62°N, 101.19°W
Report Text: KGUY 192053Z AUTO 19008KT 10SM FEW019 07/01 A3009 RMK AO2 SLP187 T00670011 56024
Loading
Personal Weather Stations






























Interactive Weather Map New forecast layout! Learn more

10-Day Weather Forecast

Advertisements
Track Severe Weather on mobile